Date,TemperatureHighF,TemperatureAvgF,TemperatureLowF,DewpointHighF,DewpointAvgF,DewpointLowF,HumidityHigh,HumidityAvg,HumidityLow,PressureMaxIn,PressureMinIn,WindSpeedMaxMPH,WindSpeedAvgMPH,GustSpeedMaxMPH,PrecipitationSumIn
2013-6-1,54,48,42,-100,-100,-100,0,0,100,0.00,40.00,0,-999,0,0.24
2013-6-2,60,48,38,-100,-100,-100,0,0,100,0.00,40.00,0,-999,0,0.02
2013-6-3,64,48,32,-100,-100,-100,0,0,100,0.00,40.00,0,-999,0,0.00
2013-6-4,63,50,37,-100,-100,-100,0,0,100,0.00,40.00,0,-999,0,0.00
2013-6-5,55,50,44,-100,-100,-100,0,0,100,0.00,40.00,0,-999,0,0.00
2013-6-6,59,50,42,-100,-100,-100,0,0,100,0.00,40.00,0,-999,0,0.00
2013-6-7,67,51,34,-100,-100,-100,0,0,100,0.00,40.00,0,-999,0,0.00
2013-6-8,74,58,39,-100,-100,-100,0,0,100,0.00,40.00,0,-999,0,0.00
2013-6-9,67,54,42,-100,-100,-100,0,0,100,0.00,40.00,0,-999,0,0.18
2013-6-10,67,59,54,-100,-100,-100,0,0,100,0.00,40.00,0,-999,0,0.04
2013-6-11,76,63,51,-100,-100,-100,0,0,100,0.00,40.00,0,-999,0,0.00
2013-6-12,72,61,44,-100,-100,-100,0,0,100,0.00,40.00,0,-999,0,0.00
2013-6-13,77,62,49,-100,-100,-100,0,0,100,0.00,40.00,0,-999,0,0.00
2013-6-14,76,59,41,-100,-100,-100,0,0,100,0.00,40.00,0,-999,0,0.00
2013-6-15,78,62,50,-100,-100,-100,0,0,100,0.00,40.00,0,-999,0,0.16
2013-6-16,71,60,51,-100,-100,-100,0,0,100,0.00,40.00,0,-999,0,0.16
2013-6-17,62,52,44,-100,-100,-100,0,0,100,0.00,40.00,0,-999,0,0.17
2013-6-18,77,55,36,-100,-100,-100,0,0,100,0.00,40.00,0,-999,0,0.02
2013-6-19,79,60,38,-100,-100,-100,0,0,100,0.00,40.00,0,-999,0,0.08
2013-6-20,71,64,60,-100,-100,-100,0,0,100,0.00,40.00,0,-999,0,0.26
2013-6-22,63,61,57,-100,-100,-100,0,0,100,0.00,40.00,0,-999,0,0.03
2013-6-23,77,65,57,-100,-100,-100,0,0,100,0.00,40.00,0,-999,0,0.01
2013-6-24,86,69,55,-100,-100,-100,0,0,100,0.00,40.00,0,-999,0,0.01
2013-6-25,92,72,54,-100,-100,-100,0,0,100,0.00,40.00,0,-999,0,0.17
2013-6-26,81,68,61,-100,-100,-100,0,0,100,0.00,40.00,0,-999,0,0.67
2013-6-27,79,69,59,-100,-100,-100,0,0,100,0.00,40.00,0,-999,0,0.12
2013-6-28,70,63,60,-100,-100,-100,0,0,100,0.00,40.00,0,-999,0,0.44
2013-6-29,72,62,51,-100,-100,-100,0,0,100,0.00,40.00,0,-999,0,0.12
2013-6-30,79,64,47,-100,-100,-100,0,0,100,0.00,40.00,0,-999,0,0.00